sensor_id;sensor_type;location;lat;lon;timestamp;pressure;altitude;pressure_sealevel;temperature;humidity
48027;BME280;50714;49.208;5.364;2023-03-20T00:04:58;99828.94;;;8.93;93.76
48027;BME280;50714;49.208;5.364;2023-03-20T00:15:01;99839.78;;;8.85;93.93
48027;BME280;50714;49.208;5.364;2023-03-20T00:25:03;99863.34;;;8.83;93.73
48027;BME280;50714;49.208;5.364;2023-03-20T00:35:19;99878.72;;;8.74;94.22
48027;BME280;50714;49.208;5.364;2023-03-20T00:45:20;99891.97;;;8.61;93.89
48027;BME280;50714;49.208;5.364;2023-03-20T00:55:24;99917.75;;;8.55;93.71
48027;BME280;50714;49.208;5.364;2023-03-20T01:05:26;99902.97;;;8.51;92.96
48027;BME280;50714;49.208;5.364;2023-03-20T01:15:30;99892.59;;;8.48;92.70
48027;BME280;50714;49.208;5.364;2023-03-20T01:25:32;99903.53;;;8.47;93.26
48027;BME280;50714;49.208;5.364;2023-03-20T01:35:32;99905.56;;;8.45;92.64
48027;BME280;50714;49.208;5.364;2023-03-20T01:45:34;99899.06;;;8.31;92.08
48027;BME280;50714;49.208;5.364;2023-03-20T01:55:35;99898.53;;;8.13;91.61
48027;BME280;50714;49.208;5.364;2023-03-20T02:05:37;99921.50;;;7.93;91.57
48027;BME280;50714;49.208;5.364;2023-03-20T02:16:17;99925.66;;;7.64;90.69
48027;BME280;50714;49.208;5.364;2023-03-20T02:47:04;99887.06;;;7.57;93.33
48027;BME280;50714;49.208;5.364;2023-03-20T03:07:29;99893.63;;;7.55;93.36
48027;BME280;50714;49.208;5.364;2023-03-20T03:17:33;99893.16;;;7.51;92.89
48027;BME280;50714;49.208;5.364;2023-03-20T03:27:38;99907.69;;;7.57;93.00
48027;BME280;50714;49.208;5.364;2023-03-20T03:47:50;99913.97;;;7.49;91.50
48027;BME280;50714;49.208;5.364;2023-03-20T03:58:06;99914.47;;;7.44;91.88
48027;BME280;50714;49.208;5.364;2023-03-20T04:08:08;99924.56;;;7.34;91.61
48027;BME280;50714;49.208;5.364;2023-03-20T04:18:16;99919.22;;;7.26;91.45
48027;BME280;50714;49.208;5.364;2023-03-20T04:28:17;99926.63;;;7.16;91.85
48027;BME280;50714;49.208;5.364;2023-03-20T04:38:19;99928.81;;;7.21;91.93
48027;BME280;50714;49.208;5.364;2023-03-20T04:48:19;99927.97;;;7.20;91.84
48027;BME280;50714;49.208;5.364;2023-03-20T04:58:20;99916.56;;;7.18;92.46
48027;BME280;50714;49.208;5.364;2023-03-20T05:08:21;99918.56;;;7.16;93.27
48027;BME280;50714;49.208;5.364;2023-03-20T05:18:21;99916.38;;;7.19;92.60
48027;BME280;50714;49.208;5.364;2023-03-20T05:28:21;99908.84;;;7.15;93.33
48027;BME280;50714;49.208;5.364;2023-03-20T05:38:22;99921.09;;;7.17;93.57
48027;BME280;50714;49.208;5.364;2023-03-20T05:48:22;99930.81;;;7.10;92.51
48027;BME280;50714;49.208;5.364;2023-03-20T05:58:23;99942.09;;;6.98;91.77
48027;BME280;50714;49.208;5.364;2023-03-20T06:08:23;99960.69;;;6.91;92.26
48027;BME280;50714;49.208;5.364;2023-03-20T06:18:23;99957.03;;;7.00;92.80
48027;BME280;50714;49.208;5.364;2023-03-20T06:28:24;99973.28;;;7.07;92.65
48027;BME280;50714;49.208;5.364;2023-03-20T06:38:24;99976.47;;;7.02;91.66
48027;BME280;50714;49.208;5.364;2023-03-20T06:48:24;99982.34;;;6.90;91.74
48027;BME280;50714;49.208;5.364;2023-03-20T06:58:25;99976.97;;;7.06;92.59
48027;BME280;50714;49.208;5.364;2023-03-20T07:08:26;99999.25;;;7.14;91.16
48027;BME280;50714;49.208;5.364;2023-03-20T07:18:26;100007.31;;;7.14;90.53
48027;BME280;50714;49.208;5.364;2023-03-20T07:28:27;100009.63;;;7.42;87.47
48027;BME280;50714;49.208;5.364;2023-03-20T07:38:27;100016.38;;;7.22;86.77
48027;BME280;50714;49.208;5.364;2023-03-20T07:48:27;100011.34;;;6.94;88.66
48027;BME280;50714;49.208;5.364;2023-03-20T07:58:28;100009.59;;;8.05;89.47
48027;BME280;50714;49.208;5.364;2023-03-20T08:08:28;100021.84;;;8.78;82.93
48027;BME280;50714;49.208;5.364;2023-03-20T08:18:28;100027.19;;;8.55;82.75
48027;BME280;50714;49.208;5.364;2023-03-20T08:28:29;100035.72;;;8.67;82.27
48027;BME280;50714;49.208;5.364;2023-03-20T08:38:29;100040.59;;;10.13;82.58
48027;BME280;50714;49.208;5.364;2023-03-20T08:48:29;100044.91;;;12.27;79.04
48027;BME280;50714;49.208;5.364;2023-03-20T08:58:30;100038.13;;;13.45;71.01
48027;BME280;50714;49.208;5.364;2023-03-20T09:08:30;100032.91;;;13.17;69.37
48027;BME280;50714;49.208;5.364;2023-03-20T09:18:31;100037.41;;;12.36;69.11
48027;BME280;50714;49.208;5.364;2023-03-20T09:28:31;100038.44;;;12.89;68.07
48027;BME280;50714;49.208;5.364;2023-03-20T09:38:32;100052.56;;;12.72;65.95
48027;BME280;50714;49.208;5.364;2023-03-20T09:58:34;100057.50;;;13.42;65.93
48027;BME280;50714;49.208;5.364;2023-03-20T10:08:37;100045.53;;;16.96;65.11
48027;BME280;50714;49.208;5.364;2023-03-20T10:18:45;100046.13;;;17.39;54.95
48027;BME280;50714;49.208;5.364;2023-03-20T10:28:50;100030.75;;;18.95;58.03
48027;BME280;50714;49.208;5.364;2023-03-20T10:49:06;100026.16;;;17.92;53.72
48027;BME280;50714;49.208;5.364;2023-03-20T10:59:21;100015.19;;;18.67;48.55
48027;BME280;50714;49.208;5.364;2023-03-20T11:09:24;99999.44;;;17.06;51.13
48027;BME280;50714;49.208;5.364;2023-03-20T11:19:26;100012.88;;;15.86;52.50
48027;BME280;50714;49.208;5.364;2023-03-20T11:29:29;100007.00;;;15.40;52.67
48027;BME280;50714;49.208;5.364;2023-03-20T11:39:34;100011.63;;;14.83;53.72
48027;BME280;50714;49.208;5.364;2023-03-20T11:49:54;100002.25;;;14.79;52.59
48027;BME280;50714;49.208;5.364;2023-03-20T11:59:55;99999.09;;;14.82;55.89
48027;BME280;50714;49.208;5.364;2023-03-20T12:09:59;99982.94;;;17.66;52.04
48027;BME280;50714;49.208;5.364;2023-03-20T12:20:06;99982.50;;;16.26;51.13
48027;BME280;50714;49.208;5.364;2023-03-20T12:30:39;99982.97;;;15.36;51.89
48027;BME280;50714;49.208;5.364;2023-03-20T12:40:44;99978.19;;;14.82;53.41
48027;BME280;50714;49.208;5.364;2023-03-20T12:51:19;99952.75;;;14.25;52.83
48027;BME280;50714;49.208;5.364;2023-03-20T13:01:25;99921.09;;;14.13;54.10
48027;BME280;50714;49.208;5.364;2023-03-20T13:22:05;99905.66;;;14.13;53.47
48027;BME280;50714;49.208;5.364;2023-03-20T13:42:31;99895.56;;;14.20;56.20
48027;BME280;50714;49.208;5.364;2023-03-20T13:52:38;99889.53;;;14.18;56.00
48027;BME280;50714;49.208;5.364;2023-03-20T14:12:57;99889.28;;;13.88;55.23
48027;BME280;50714;49.208;5.364;2023-03-20T14:22:59;99881.97;;;13.89;55.60
48027;BME280;50714;49.208;5.364;2023-03-20T14:43:30;99849.28;;;14.09;52.98
48027;BME280;50714;49.208;5.364;2023-03-20T14:53:35;99825.41;;;14.17;54.54
48027;BME280;50714;49.208;5.364;2023-03-20T15:03:38;99826.88;;;14.20;53.40
48027;BME280;50714;49.208;5.364;2023-03-20T15:13:40;99814.91;;;13.96;54.29
48027;BME280;50714;49.208;5.364;2023-03-20T15:23:43;99817.47;;;13.91;54.55
48027;BME280;50714;49.208;5.364;2023-03-20T15:33:44;99806.75;;;13.58;54.42
48027;BME280;50714;49.208;5.364;2023-03-20T15:43:45;99810.41;;;13.32;55.69
48027;BME280;50714;49.208;5.364;2023-03-20T15:53:47;99806.88;;;13.25;55.54
48027;BME280;50714;49.208;5.364;2023-03-20T16:03:48;99796.50;;;13.15;55.94
48027;BME280;50714;49.208;5.364;2023-03-20T16:13:50;99786.09;;;12.92;56.46
48027;BME280;50714;49.208;5.364;2023-03-20T16:23:54;99780.25;;;12.82;56.98
48027;BME280;50714;49.208;5.364;2023-03-20T16:34:16;99787.97;;;12.79;56.71
48027;BME280;50714;49.208;5.364;2023-03-20T16:44:20;99784.63;;;12.77;56.23
48027;BME280;50714;49.208;5.364;2023-03-20T16:54:26;99786.56;;;12.50;56.63
48027;BME280;50714;49.208;5.364;2023-03-20T17:04:36;99785.50;;;12.24;57.55
48027;BME280;50714;49.208;5.364;2023-03-20T17:14:37;99771.34;;;12.03;58.42
48027;BME280;50714;49.208;5.364;2023-03-20T17:24:39;99768.19;;;11.79;58.98
48027;BME280;50714;49.208;5.364;2023-03-20T17:34:40;99784.25;;;11.46;60.15
48027;BME280;50714;49.208;5.364;2023-03-20T17:44:41;99785.59;;;11.22;60.67
48027;BME280;50714;49.208;5.364;2023-03-20T17:54:43;99784.41;;;10.97;61.38
48027;BME280;50714;49.208;5.364;2023-03-20T18:04:44;99781.84;;;10.82;62.60
48027;BME280;50714;49.208;5.364;2023-03-20T18:14:45;99803.00;;;10.79;62.87
48027;BME280;50714;49.208;5.364;2023-03-20T18:24:45;99798.31;;;10.66;63.52
48027;BME280;50714;49.208;5.364;2023-03-20T18:34:46;99798.44;;;10.51;64.29
48027;BME280;50714;49.208;5.364;2023-03-20T18:44:46;99802.34;;;10.49;65.10
48027;BME280;50714;49.208;5.364;2023-03-20T18:54:46;99795.03;;;10.43;65.81
48027;BME280;50714;49.208;5.364;2023-03-20T19:04:47;99779.53;;;10.51;66.34
48027;BME280;50714;49.208;5.364;2023-03-20T19:14:47;99785.31;;;10.48;67.25
48027;BME280;50714;49.208;5.364;2023-03-20T19:24:47;99776.75;;;10.38;67.93
48027;BME280;50714;49.208;5.364;2023-03-20T19:34:48;99773.53;;;10.28;69.57
48027;BME280;50714;49.208;5.364;2023-03-20T19:44:48;99766.03;;;10.02;70.91
48027;BME280;50714;49.208;5.364;2023-03-20T19:54:48;99763.97;;;10.04;71.64
48027;BME280;50714;49.208;5.364;2023-03-20T20:04:49;99754.00;;;10.05;71.96
48027;BME280;50714;49.208;5.364;2023-03-20T20:14:49;99755.44;;;10.01;72.78
48027;BME280;50714;49.208;5.364;2023-03-20T20:24:50;99755.69;;;10.06;72.82
48027;BME280;50714;49.208;5.364;2023-03-20T20:34:52;99761.00;;;9.99;73.30
48027;BME280;50714;49.208;5.364;2023-03-20T20:44:53;99759.22;;;10.06;73.19
48027;BME280;50714;49.208;5.364;2023-03-20T20:54:53;99745.72;;;10.06;72.21
48027;BME280;50714;49.208;5.364;2023-03-20T21:04:54;99741.19;;;10.07;71.25
48027;BME280;50714;49.208;5.364;2023-03-20T21:14:54;99746.81;;;10.12;71.21
48027;BME280;50714;49.208;5.364;2023-03-20T21:24:55;99738.47;;;10.07;71.53
48027;BME280;50714;49.208;5.364;2023-03-20T21:34:55;99740.34;;;10.06;71.76
48027;BME280;50714;49.208;5.364;2023-03-20T21:44:55;99744.50;;;10.09;72.02
48027;BME280;50714;49.208;5.364;2023-03-20T21:54:58;99733.53;;;10.10;72.22
48027;BME280;50714;49.208;5.364;2023-03-20T22:05:00;99742.31;;;9.98;72.90
48027;BME280;50714;49.208;5.364;2023-03-20T22:15:00;99734.88;;;10.00;73.63
48027;BME280;50714;49.208;5.364;2023-03-20T22:25:01;99729.75;;;10.05;74.13
48027;BME280;50714;49.208;5.364;2023-03-20T22:35:01;99734.81;;;9.93;74.46
48027;BME280;50714;49.208;5.364;2023-03-20T22:45:02;99722.25;;;9.79;74.73
48027;BME280;50714;49.208;5.364;2023-03-20T22:55:03;99713.06;;;9.73;74.35
48027;BME280;50714;49.208;5.364;2023-03-20T23:05:03;99708.50;;;9.74;74.95
48027;BME280;50714;49.208;5.364;2023-03-20T23:15:04;99701.91;;;9.76;74.88
48027;BME280;50714;49.208;5.364;2023-03-20T23:25:06;99695.41;;;9.71;74.68
48027;BME280;50714;49.208;5.364;2023-03-20T23:35:07;99689.84;;;9.72;74.75
48027;BME280;50714;49.208;5.364;2023-03-20T23:45:08;99676.50;;;9.64;75.32
48027;BME280;50714;49.208;5.364;2023-03-20T23:55:09;99675.59;;;9.57;75.21
